createdAt,value
2019-06-15T00:01:43.580Z,10.23
2019-06-15T00:04:51.202Z,5.40
2019-06-15T00:07:58.944Z,10.30
2019-06-15T00:11:06.764Z,9.17
2019-06-15T00:14:14.911Z,10.77
2019-06-15T00:17:22.516Z,11.20
2019-06-15T00:20:29.765Z,10.77
2019-06-15T00:23:37.039Z,7.37
2019-06-15T00:26:44.510Z,14.83
2019-06-15T00:29:51.691Z,7.20
2019-06-15T00:32:58.889Z,8.40
2019-06-15T00:36:06.302Z,7.57
2019-06-15T00:39:14.074Z,6.53
2019-06-15T00:42:21.249Z,7.67
2019-06-15T00:45:28.543Z,6.67
2019-06-15T00:48:36.400Z,8.10
2019-06-15T00:51:43.795Z,14.17
2019-06-15T00:54:51.232Z,5.87
2019-06-15T00:57:59.247Z,2.97
2019-06-15T01:01:06.750Z,5.07
2019-06-15T01:04:14.674Z,8.03
2019-06-15T01:07:22.054Z,9.53
2019-06-15T01:10:29.676Z,15.93
2019-06-15T01:13:36.952Z,8.07
2019-06-15T01:16:44.332Z,11.97
2019-06-15T01:19:52.031Z,8.33
2019-06-15T01:22:59.445Z,7.33
2019-06-15T01:26:07.240Z,15.00
2019-06-15T01:29:14.650Z,9.17
2019-06-15T01:32:21.831Z,8.00
2019-06-15T01:35:29.246Z,9.40
2019-06-15T01:38:36.666Z,12.13
2019-06-15T01:41:44.065Z,5.27
2019-06-15T01:44:51.559Z,7.33
2019-06-15T01:47:58.995Z,5.03
2019-06-15T01:51:06.525Z,7.87
2019-06-15T01:54:14.281Z,9.00
2019-06-15T01:57:21.985Z,7.13
2019-06-15T02:00:39.488Z,7.37
2019-06-15T02:03:47.549Z,6.77
2019-06-15T02:06:54.875Z,8.00
2019-06-15T02:10:02.350Z,7.77
2019-06-15T02:13:10.307Z,7.50
2019-06-15T02:16:17.631Z,7.50
2019-06-15T02:19:24.894Z,6.23
2019-06-15T02:22:32.924Z,8.50
2019-06-15T02:25:40.385Z,9.13
2019-06-15T02:28:48.048Z,7.07
2019-06-15T02:31:55.566Z,13.67
2019-06-15T02:35:04.602Z,7.43
2019-06-15T02:38:12.321Z,8.90
2019-06-15T02:41:20.064Z,8.50
2019-06-15T02:44:27.448Z,9.77
2019-06-15T02:47:35.146Z,4.93
2019-06-15T02:50:42.655Z,6.33
2019-06-15T02:53:50.389Z,5.40
2019-06-15T02:56:58.280Z,5.30
2019-06-15T03:00:06.688Z,6.33
2019-06-15T03:03:14.569Z,8.33
2019-06-15T03:06:22.061Z,7.53
2019-06-15T03:09:30.385Z,7.30
2019-06-15T03:12:38.071Z,4.73
2019-06-15T03:15:46.515Z,9.00
2019-06-15T03:18:53.891Z,5.43
2019-06-15T03:22:01.283Z,6.83
2019-06-15T03:25:11.380Z,11.17
2019-06-15T03:28:18.676Z,6.23
2019-06-15T03:31:26.353Z,7.40
2019-06-15T03:34:33.514Z,3.00
2019-06-15T03:37:41.124Z,7.30
2019-06-15T03:40:48.716Z,6.83
2019-06-15T03:43:56.231Z,4.80
2019-06-15T03:47:04.033Z,5.33
2019-06-15T03:50:12.541Z,6.30
2019-06-15T03:53:20.182Z,8.27
2019-06-15T03:56:28.241Z,7.27
2019-06-15T03:59:35.735Z,6.07
2019-06-15T04:02:43.821Z,12.23
2019-06-15T04:05:51.202Z,7.70
2019-06-15T04:08:58.784Z,5.23
2019-06-15T04:12:06.226Z,8.50
2019-06-15T04:15:13.878Z,7.33
2019-06-15T04:18:22.461Z,6.73
2019-06-15T04:21:29.968Z,9.33
2019-06-15T04:24:38.066Z,6.70
2019-06-15T04:27:45.659Z,6.93
2019-06-15T04:30:53.272Z,9.27
2019-06-15T04:34:01.782Z,7.83
2019-06-15T04:37:09.839Z,7.33
2019-06-15T04:40:17.907Z,7.13
2019-06-15T04:43:25.337Z,7.00
2019-06-15T04:46:32.979Z,12.67
2019-06-15T04:49:40.721Z,12.53
2019-06-15T04:52:48.507Z,10.47
2019-06-15T04:55:55.918Z,9.50
2019-06-15T04:59:03.316Z,4.10
2019-06-15T05:02:11.028Z,7.17
2019-06-15T05:05:18.343Z,8.60
2019-06-15T05:08:25.879Z,7.80
2019-06-15T05:11:33.795Z,9.03
2019-06-15T05:14:41.145Z,9.03
2019-06-15T05:17:48.445Z,10.90
2019-06-15T05:20:56.500Z,8.40
2019-06-15T05:24:04.031Z,7.67
2019-06-15T05:27:12.386Z,9.87
2019-06-15T05:30:19.891Z,11.03
2019-06-15T05:33:27.185Z,9.70
2019-06-15T05:36:34.694Z,9.77
2019-06-15T05:39:42.279Z,11.53
2019-06-15T05:42:50.325Z,11.33
2019-06-15T05:45:57.905Z,14.57
2019-06-15T05:49:05.373Z,12.53
2019-06-15T05:52:12.977Z,10.17
2019-06-15T05:55:20.604Z,10.80
2019-06-15T05:58:28.089Z,12.33
2019-06-15T06:01:35.535Z,12.20
2019-06-15T06:04:43.190Z,8.83
2019-06-15T06:07:50.764Z,9.07
2019-06-15T06:10:59.021Z,6.63
2019-06-15T06:14:07.005Z,13.40
2019-06-15T06:17:14.656Z,5.40
2019-06-15T06:20:22.142Z,9.23
2019-06-15T06:23:29.479Z,8.70
2019-06-15T06:26:36.816Z,9.80
2019-06-15T06:29:45.426Z,11.73
2019-06-15T06:32:53.868Z,11.77
2019-06-15T06:36:06.085Z,7.10
2019-06-15T06:39:12.193Z,7.17
2019-06-15T06:42:20.440Z,8.77
2019-06-15T06:45:27.941Z,14.00
2019-06-15T06:48:36.429Z,11.33
2019-06-15T06:51:43.990Z,9.67
2019-06-15T06:54:51.985Z,6.20
2019-06-15T06:57:59.609Z,17.13
2019-06-15T07:01:07.194Z,7.37
2019-06-15T07:04:15.078Z,6.83
2019-06-15T07:07:22.820Z,9.07
2019-06-15T07:10:30.229Z,5.37
2019-06-15T07:13:37.725Z,5.77
2019-06-15T07:16:45.405Z,6.80
2019-06-15T07:19:53.109Z,8.13
2019-06-15T07:23:00.584Z,8.37
2019-06-15T07:26:08.101Z,9.53
2019-06-15T07:29:15.699Z,8.00
2019-06-15T07:32:23.647Z,4.07
2019-06-15T07:35:31.182Z,8.53
2019-06-15T07:38:38.564Z,9.13
2019-06-15T07:41:46.526Z,6.40
2019-06-15T07:44:55.029Z,8.10
2019-06-15T07:48:02.489Z,3.87
2019-06-15T07:51:09.833Z,7.13
2019-06-15T07:54:17.647Z,8.80
2019-06-15T07:57:25.078Z,4.40
2019-06-15T08:00:32.931Z,4.03
2019-06-15T08:03:43.250Z,6.13
2019-06-15T08:06:49.789Z,6.70
2019-06-15T08:09:57.344Z,4.43
2019-06-15T08:13:04.782Z,5.33
2019-06-15T08:16:12.539Z,2.13
2019-06-15T08:19:20.600Z,1.40
2019-06-15T08:22:28.627Z,5.90
2019-06-15T08:25:35.979Z,1.57
2019-06-15T08:28:44.070Z,2.27
2019-06-15T08:31:56.975Z,2.63
2019-06-15T08:35:05.556Z,1.30
2019-06-15T08:38:13.892Z,0.80
2019-06-15T08:41:21.647Z,4.17
2019-06-15T08:44:29.974Z,3.67
2019-06-15T08:47:37.850Z,2.53
2019-06-15T08:50:45.169Z,3.10
2019-06-15T08:53:53.573Z,6.80
2019-06-15T08:57:01.154Z,0.97
2019-06-15T09:00:09.398Z,2.77
2019-06-15T09:03:16.925Z,2.73
2019-06-15T09:06:24.466Z,1.43
2019-06-15T09:09:32.158Z,1.27
2019-06-15T09:12:39.978Z,4.50
2019-06-15T09:15:52.309Z,1.30
2019-06-15T09:19:00.006Z,0.97
2019-06-15T09:22:07.573Z,2.70
2019-06-15T09:25:15.015Z,4.57
2019-06-15T09:28:22.615Z,2.13
2019-06-15T09:31:30.376Z,4.17
2019-06-15T09:34:37.818Z,2.43
2019-06-15T09:37:45.725Z,1.90
2019-06-15T09:40:53.314Z,1.53
2019-06-15T09:44:01.504Z,5.07
2019-06-15T09:47:09.215Z,3.03
2019-06-15T09:50:16.977Z,1.53
2019-06-15T09:53:24.349Z,1.43
2019-06-15T09:56:32.092Z,3.87
2019-06-15T09:59:39.495Z,7.03
2019-06-15T10:02:47.249Z,4.10
2019-06-15T10:05:54.671Z,5.83
2019-06-15T10:09:04.331Z,4.10
2019-06-15T10:12:12.151Z,2.53
2019-06-15T10:15:19.858Z,2.17
2019-06-15T10:18:27.425Z,3.67
2019-06-15T10:21:35.230Z,4.10
2019-06-15T10:24:42.552Z,1.80
2019-06-15T10:27:50.154Z,2.50
2019-06-15T10:31:00.632Z,5.43
2019-06-15T10:34:07.172Z,2.80
2019-06-15T10:37:15.397Z,2.57
2019-06-15T10:40:23.959Z,3.30
2019-06-15T10:43:31.769Z,3.27
2019-06-15T10:46:39.535Z,4.40
2019-06-15T10:49:48.041Z,5.30
2019-06-15T10:52:56.013Z,4.97
2019-06-15T10:56:03.537Z,3.17
2019-06-15T10:59:11.438Z,4.73
2019-06-15T11:02:18.875Z,7.00
2019-06-15T11:05:26.373Z,2.27
2019-06-15T11:08:34.877Z,3.33
2019-06-15T11:11:42.618Z,2.53
2019-06-15T11:14:50.471Z,3.20
2019-06-15T11:17:59.528Z,2.30
2019-06-15T11:21:07.760Z,8.83
2019-06-15T11:24:15.923Z,4.87
2019-06-15T11:27:23.762Z,2.33
2019-06-15T11:30:31.264Z,2.73
2019-06-15T11:33:38.778Z,5.70
2019-06-15T11:36:46.344Z,4.27
2019-06-15T11:39:54.143Z,2.83
2019-06-15T11:43:01.863Z,4.07
2019-06-15T11:46:09.800Z,2.73
2019-06-15T11:49:17.476Z,3.53
2019-06-15T11:52:25.770Z,2.73
2019-06-15T11:55:39.632Z,4.80
2019-06-15T11:58:44.107Z,3.80
2019-06-15T12:01:51.922Z,3.00
2019-06-15T12:05:00.600Z,3.57
2019-06-15T12:08:08.539Z,4.23
2019-06-15T12:11:16.188Z,1.27
2019-06-15T12:14:24.551Z,1.70
2019-06-15T12:17:32.004Z,5.33
2019-06-15T12:20:39.776Z,6.43
2019-06-15T12:23:48.775Z,3.20
2019-06-15T12:26:56.386Z,4.17
2019-06-15T12:30:05.586Z,4.00
2019-06-15T12:33:14.003Z,4.70
2019-06-15T12:36:21.577Z,3.47
2019-06-15T12:39:30.168Z,3.87
2019-06-15T12:42:37.988Z,2.23
2019-06-15T12:45:45.617Z,4.83
2019-06-15T12:48:53.918Z,5.87
2019-06-15T12:52:01.781Z,3.70
2019-06-15T12:55:09.496Z,3.80
2019-06-15T12:58:17.287Z,7.67
2019-06-15T13:01:25.602Z,4.10
2019-06-15T13:04:34.238Z,5.20
2019-06-15T13:07:43.051Z,2.47
2019-06-15T13:10:53.705Z,3.90
2019-06-15T13:14:02.488Z,4.60
2019-06-15T13:17:10.890Z,2.93
2019-06-15T13:20:21.219Z,4.20
2019-06-15T13:23:29.971Z,4.53
2019-06-15T13:26:37.994Z,5.73
2019-06-15T13:29:45.547Z,1.20
2019-06-15T13:32:53.554Z,3.80
2019-06-15T13:36:01.152Z,5.63
2019-06-15T13:39:08.857Z,3.47
2019-06-15T13:42:16.477Z,2.97
2019-06-15T13:45:24.225Z,3.90
2019-06-15T13:48:32.494Z,5.47
2019-06-15T13:51:40.584Z,6.00
2019-06-15T13:54:48.484Z,5.37
2019-06-15T13:57:56.299Z,3.43
2019-06-15T14:01:04.024Z,4.10
2019-06-15T14:04:11.923Z,3.23
2019-06-15T14:07:20.799Z,4.20
2019-06-15T14:10:28.724Z,2.27
2019-06-15T14:13:37.178Z,4.00
2019-06-15T14:16:44.922Z,4.97
2019-06-15T14:19:53.073Z,1.73
2019-06-15T14:23:00.483Z,3.83
2019-06-15T14:26:09.806Z,3.90
2019-06-15T14:29:17.927Z,5.17
2019-06-15T14:32:26.486Z,2.63
2019-06-15T14:35:35.160Z,1.20
2019-06-15T14:38:44.249Z,3.30
2019-06-15T14:41:52.657Z,2.00
2019-06-15T14:45:01.882Z,1.60
2019-06-15T14:48:10.787Z,3.43
2019-06-15T14:51:20.374Z,4.40
2019-06-15T14:54:29.177Z,1.67
2019-06-15T14:57:37.835Z,3.50
2019-06-15T15:00:46.673Z,3.83
2019-06-15T15:03:57.063Z,2.23
2019-06-15T15:07:04.308Z,2.30
2019-06-15T15:10:12.481Z,2.00
2019-06-15T15:13:20.188Z,1.60
2019-06-15T15:16:28.168Z,4.30
2019-06-15T15:19:36.202Z,4.50
2019-06-15T15:22:46.559Z,3.17
2019-06-15T15:25:57.410Z,4.00
2019-06-15T15:29:04.090Z,14.47
2019-06-15T15:32:24.012Z,5.90
2019-06-15T15:35:21.336Z,2.00
2019-06-15T15:38:29.389Z,2.10
2019-06-15T15:41:37.413Z,2.77
2019-06-15T15:44:47.146Z,2.53
2019-06-15T15:47:54.610Z,1.63
2019-06-15T15:51:02.412Z,2.37
2019-06-15T15:54:10.441Z,4.47
2019-06-15T15:57:18.266Z,7.30
2019-06-15T16:00:32.650Z,4.83
2019-06-15T16:03:40.690Z,2.90
2019-06-15T16:06:48.832Z,3.73
2019-06-15T16:09:56.617Z,2.10
2019-06-15T16:13:06.443Z,3.20
2019-06-15T16:16:16.479Z,2.27
2019-06-15T16:19:26.231Z,5.27
2019-06-15T16:22:34.796Z,4.97
2019-06-15T16:25:46.166Z,3.40
2019-06-15T16:28:56.335Z,2.13
2019-06-15T16:32:03.989Z,2.07
2019-06-15T16:35:12.699Z,2.10
2019-06-15T16:38:20.319Z,5.10
2019-06-15T16:41:29.115Z,2.90
2019-06-15T16:44:37.481Z,1.97
2019-06-15T16:47:46.745Z,2.53
2019-06-15T16:51:16.687Z,4.13
2019-06-15T16:54:23.664Z,1.87
2019-06-15T16:57:31.391Z,4.43
2019-06-15T17:00:41.278Z,2.57
2019-06-15T17:03:48.668Z,4.07
2019-06-15T17:06:56.587Z,2.77
2019-06-15T17:10:06.380Z,3.97
2019-06-15T17:13:16.088Z,3.00
2019-06-15T17:16:25.920Z,2.37
2019-06-15T17:19:32.918Z,1.63
2019-06-15T17:22:40.525Z,2.63
2019-06-15T17:25:49.167Z,2.70
2019-06-15T17:28:56.774Z,4.00
2019-06-15T17:32:06.323Z,2.63
2019-06-15T17:35:16.764Z,1.53
2019-06-15T17:38:24.141Z,2.57
2019-06-15T17:41:32.527Z,1.17
2019-06-15T17:44:40.040Z,2.67
2019-06-15T17:47:48.059Z,2.67
2019-06-15T17:50:57.282Z,1.60
2019-06-15T17:54:06.336Z,1.60
2019-06-15T17:57:13.974Z,2.33
2019-06-15T18:00:27.373Z,4.47
2019-06-15T18:03:49.854Z,1.93
2019-06-15T18:06:46.840Z,3.33
2019-06-15T18:09:55.603Z,2.93
2019-06-15T18:13:03.491Z,2.03
2019-06-15T18:16:11.004Z,4.67
2019-06-15T18:19:18.508Z,3.47
2019-06-15T18:22:26.599Z,4.60
2019-06-15T18:25:37.048Z,1.90
2019-06-15T18:28:43.942Z,1.37
2019-06-15T18:31:52.054Z,2.80
2019-06-15T18:35:00.106Z,2.80
2019-06-15T18:38:08.579Z,3.30
2019-06-15T18:41:16.987Z,2.70
2019-06-15T18:44:26.882Z,4.57
2019-06-15T18:47:36.388Z,3.10
2019-06-15T18:50:44.559Z,2.70
2019-06-15T18:53:52.330Z,4.23
2019-06-15T18:57:00.255Z,1.83
2019-06-15T19:00:09.518Z,2.90
2019-06-15T19:03:17.632Z,2.47
2019-06-15T19:06:26.381Z,2.90
2019-06-15T19:09:34.804Z,2.17
2019-06-15T19:12:42.992Z,3.13
2019-06-15T19:15:50.946Z,3.20
2019-06-15T19:18:58.747Z,1.87
2019-06-15T19:22:07.766Z,2.73
2019-06-15T19:25:17.604Z,3.30
2019-06-15T19:28:26.709Z,5.23
2019-06-15T19:31:36.734Z,1.40
2019-06-15T19:34:48.816Z,1.93
2019-06-15T19:37:56.170Z,3.13
2019-06-15T19:41:06.730Z,2.97
2019-06-15T19:44:16.405Z,4.03
2019-06-15T19:47:26.543Z,3.50
2019-06-15T19:50:36.242Z,1.83
2019-06-15T19:53:46.244Z,2.03
2019-06-15T19:56:56.466Z,2.90
2019-06-15T20:00:06.706Z,3.73
2019-06-15T20:03:16.671Z,1.10
2019-06-15T20:06:26.069Z,3.20
2019-06-15T20:09:37.089Z,1.33
2019-06-15T20:12:46.632Z,4.73
2019-06-15T20:15:56.990Z,3.20
2019-06-15T20:19:03.980Z,2.20
2019-06-15T20:22:11.936Z,3.77
2019-06-15T20:25:19.663Z,2.57
2019-06-15T20:28:27.746Z,1.50
2019-06-15T20:31:36.964Z,1.33
2019-06-15T20:34:46.225Z,3.07
2019-06-15T20:37:55.976Z,1.53
2019-06-15T20:41:03.955Z,3.83
2019-06-15T20:44:12.556Z,1.77
2019-06-15T20:47:21.086Z,1.10
2019-06-15T20:50:28.738Z,2.37
2019-06-15T20:53:36.933Z,2.17
2019-06-15T20:56:46.148Z,1.30
2019-06-15T20:59:56.350Z,1.63
2019-06-15T21:03:06.541Z,1.90
2019-06-15T21:06:16.688Z,4.87
2019-06-15T21:09:23.635Z,1.23
2019-06-15T21:12:31.397Z,1.40
2019-06-15T21:15:47.134Z,2.93
2019-06-15T21:18:56.968Z,1.63
2019-06-15T21:22:06.110Z,10.73
2019-06-15T21:25:13.253Z,2.67
2019-06-15T21:28:20.758Z,2.00
2019-06-15T21:31:28.448Z,2.37
2019-06-15T21:34:36.424Z,1.27
2019-06-15T21:37:46.303Z,1.77
2019-06-15T21:40:53.784Z,3.03
2019-06-15T21:44:01.513Z,2.87
2019-06-15T21:47:09.187Z,3.27
2019-06-15T21:50:16.917Z,1.00
2019-06-15T21:53:26.502Z,1.53
2019-06-15T21:56:36.487Z,1.40
2019-06-15T21:59:43.481Z,2.13
2019-06-15T22:02:51.399Z,2.77
2019-06-15T22:06:03.235Z,1.83
2019-06-15T22:09:12.355Z,1.70
2019-06-15T22:12:20.118Z,3.47
2019-06-15T22:15:27.821Z,2.63
2019-06-15T22:18:36.422Z,3.10
2019-06-15T22:21:47.513Z,1.70
2019-06-15T22:24:56.059Z,1.57
2019-06-15T22:28:06.925Z,2.03
2019-06-15T22:31:16.934Z,3.03
2019-06-15T22:34:23.959Z,0.13
2019-06-15T22:37:31.147Z,1.00
2019-06-15T22:40:38.752Z,0.30
2019-06-15T22:43:46.446Z,0.43
2019-06-15T22:46:53.870Z,0.90
2019-06-15T22:50:01.478Z,0.70
2019-06-15T22:53:09.000Z,3.07
2019-06-15T22:56:17.180Z,1.67
2019-06-15T22:59:25.972Z,3.33
2019-06-15T23:02:33.815Z,4.87
2019-06-15T23:05:41.884Z,1.90
2019-06-15T23:08:49.096Z,2.53
2019-06-15T23:11:56.652Z,5.33
2019-06-15T23:15:07.016Z,0.87
2019-06-15T23:18:17.229Z,1.67
2019-06-15T23:21:26.709Z,3.43
2019-06-15T23:24:36.225Z,2.43
2019-06-15T23:27:43.613Z,1.03
2019-06-15T23:30:51.165Z,0.67
2019-06-15T23:33:58.631Z,2.47
2019-06-15T23:37:08.350Z,0.97
2019-06-15T23:40:19.556Z,1.13
2019-06-15T23:43:27.069Z,2.53
2019-06-15T23:46:36.166Z,1.03
2019-06-15T23:49:46.014Z,0.93
2019-06-15T23:52:53.625Z,0.47
2019-06-15T23:56:01.839Z,0.30
2019-06-15T23:59:09.506Z,1.03
